logo
Search for airport 
image banner adimage banner adimage banner ad
image banner ad

FA0343 - Ditholo Lodge Helistop

Located in , South Africa

ICAO - , IATA -

Data provided by Airmate  

General information

Coordinates: S24°58'33" E27°55'5"
Elevation is 3481 feet MSL.
 
View others Airports in (unassigned)

Operational data

Special qualification required
Current time UTC:
Current local time:
Weather at : - ( 0 km )
METAR: KI69 170636Z AUTO 21006G14KT 180V240 10SM BKN100 BKN120 24/11 A2990 RMK AO1 T02370109
View NOTAMs / SUP AIP / TFR affecting this airport [VIEW]
Communications frequencies: [VIEW]

Runways:

Airport contact information

Address: South Africa

Satellite view of FA0343